Black Butte Atmospheric Data: 05/15/2019 Summary  Detailed Graphs  Station List

  Temperature     Wind Precipitation Visibility
Timestamp Air Wet
Bulb
Dew-
point
24-hr
Max
24-hr
Min
Relative
Humidity
Atmospheric
Pressure
Avg
Speed
Avg
Dir
Spot
Speed
Spot
Dir
Max
Speed
Max
Dir
  Rate Situation Start End 1 hr 3 hr 6 hr 12 hr 24 hr   Situation
Date Time °F °F °F °F °F % in Hg mph ° mph ° mph ° Y/N in/hr text Date Time Date Time in in in in in mi text
05/15/2019 12:07 AM 52.88 46.58 40.28 63.32 51.80 62.0 Not Reported 6.49 SE 7.16 E 10.51 SE No 0.000 No Precipitation     0.000 0.000 0.000 0.000 0.000 Not Reported Not Reported
05/15/2019 12:22 AM 52.70 46.58 40.46 63.32 51.80 62.0 Not Reported 5.37 SE 8.28 E 7.61 SE No 0.000 No Precipitation     0.000 0.000 0.000 0.000 0.000 Not Reported Not Reported
05/15/2019 12:37 AM 52.16 46.76 41.18 63.32 51.80 66.0 Not Reported 7.38 SE 8.95 E 8.50 E No 0.000 No Precipitation     0.000 0.000 0.000 0.000 0.000 Not Reported Not Reported
05/15/2019 12:52 AM 52.16 46.40 40.46 63.32 51.80 64.0 Not Reported 7.83 E 8.28 E 8.50 E No 0.000 No Precipitation     0.000 0.000 0.000 0.000 0.000 Not Reported Not Reported
05/15/2019 01:07 AM 52.34 46.40 40.46 63.32 51.80 63.0 Not Reported 4.25 SE 2.91 S 8.50 E No 0.000 No Precipitation     0.000 0.000 0.000 0.000 0.000 Not Reported Not Reported
05/15/2019 01:22 AM 51.62 46.40 41.18 63.32 51.62 67.0 Not Reported 6.26 SE 6.26 SE 7.38 E No 0.000 No Precipitation     0.000 0.000 0.000 0.000 0.000 Not Reported Not Reported
05/15/2019 01:37 AM 51.62 46.22 40.64 63.32 51.26 65.0 Not Reported 6.71 SE 3.80 E 9.84 SE No 0.000 No Precipitation     0.000 0.000 0.000 0.000 0.000 Not Reported Not Reported
05/15/2019 01:52 AM 51.62 46.40 40.82 63.32 51.26 66.0 Not Reported 5.82 E 6.26 E 8.72 SE No 0.000 No Precipitation     0.000 0.000 0.000 0.000 0.000 Not Reported Not Reported
05/15/2019 02:07 AM 51.08 46.22 41.36 63.32 51.08 69.0 Not Reported 4.25 E 5.59 E 8.28 E No 0.000 No Precipitation     0.000 0.000 0.000 0.000 0.000 Not Reported Not Reported
05/15/2019 02:22 AM 50.90 46.22 41.54 63.32 50.72 70.0 Not Reported 7.16 E 7.16 E 9.40 E No 0.000 No Precipitation     0.000 0.000 0.000 0.000 0.000 Not Reported Not Reported
05/15/2019 02:37 AM 50.72 46.22 41.72 63.32 50.54 71.0 Not Reported 7.38 E 5.82 E 10.07 E No 0.000 No Precipitation     0.000 0.000 0.000 0.000 0.000 Not Reported Not Reported
05/15/2019 02:52 AM 50.36 46.04 41.54 63.32 50.36 71.0 Not Reported 6.49 E 6.49 E 8.05 E No 0.000 No Precipitation     0.000 0.000 0.000 0.000 0.000 Not Reported Not Reported
05/15/2019 03:07 AM 50.00 45.86 41.72 63.32 50.00 72.0 Not Reported 6.26 E 7.16 SE 8.05 E No 0.000 No Precipitation     0.000 0.000 0.000 0.000 0.000 Not Reported Not Reported
05/15/2019 03:22 AM 49.82 45.86 41.72 63.32 49.82 73.0 Not Reported 7.61 E 7.83 SE 10.07 SE No 0.000 No Precipitation     0.000 0.000 0.000 0.000 0.000 Not Reported Not Reported
05/15/2019 03:37 AM 49.82 45.68 41.72 63.32 49.64 73.0 Not Reported 5.59 E 6.71 SE 9.17 E No 0.000 No Precipitation     0.000 0.000 0.000 0.000 0.000 Not Reported Not Reported
05/15/2019 03:52 AM 50.00 45.68 41.54 63.32 49.64 72.0 Not Reported 6.71 E 7.38 E 7.61 SE No 0.000 No Precipitation     0.000 0.000 0.000 0.000 0.000 Not Reported Not Reported
05/15/2019 04:07 AM 49.82 45.86 41.72 63.32 49.64 73.0 Not Reported 6.49 E 7.83 E 8.28 E No 0.000 No Precipitation     0.000 0.000 0.000 0.000 0.000 Not Reported Not Reported
05/15/2019 04:22 AM 49.46 45.68 41.90 63.32 49.46 75.0 Not Reported 9.17 E 7.83 E 9.40 E No 0.000 No Precipitation     0.000 0.000 0.000 0.000 0.000 Not Reported Not Reported
05/15/2019 04:37 AM 49.10 45.86 42.80 63.32 49.10 78.0 Not Reported 7.83 E 6.49 E 10.74 E No 0.000 No Precipitation     0.000 0.000 0.000 0.000 0.000 Not Reported Not Reported
05/15/2019 04:52 AM 48.92 45.86 42.80 63.32 48.74 79.0 Not Reported 6.04 E 7.61 E 9.62 SE No 0.000 No Precipitation     0.000 0.000 0.000 0.000 0.000 Not Reported Not Reported
05/15/2019 05:07 AM 48.74 45.86 43.34 63.32 48.56 81.0 Not Reported 6.93 E 10.29 E 10.29 E No 0.000 No Precipitation     0.000 0.000 0.000 0.000 0.000 Not Reported Not Reported
05/15/2019 05:22 AM 47.84 46.04 44.06 63.32 47.84 86.0 Not Reported 7.16 E 8.28 E 10.51 E No 0.000 No Precipitation     0.000 0.000 0.000 0.000 0.000 Not Reported Not Reported
05/15/2019 05:37 AM 47.66 45.86 44.06 63.32 47.66 86.0 Not Reported 9.17 E 7.38 SE 12.97 SE No 0.000 No Precipitation     0.000 0.000 0.000 0.000 0.000 Not Reported Not Reported
05/15/2019 05:52 AM 47.30 45.86 44.42 63.32 47.30 89.0 Not Reported 9.17 E 9.84 E 11.41 SE No 0.000 No Precipitation     0.000 0.000 0.000 0.000 0.000 Not Reported Not Reported
05/15/2019 06:07 AM 47.48 45.68 44.06 63.32 47.30 87.0 Not Reported 10.07 SE 9.17 E 11.18 E No 0.000 No Precipitation     0.000 0.000 0.000 0.000 0.000 Not Reported Not Reported
05/15/2019 06:22 AM 47.84 45.86 44.06 63.32 47.30 86.0 Not Reported 10.29 E 11.63 E 10.07 E No 0.000 No Precipitation     0.000 0.000 0.000 0.000 0.000 Not Reported Not Reported
05/15/2019 06:37 AM 48.74 45.50 42.08 63.32 47.30 77.0 Not Reported 12.53 SE 9.40 SE 13.20 E No 0.000 No Precipitation 05/14/2019 10:26 PM 05/14/2019 10:31 PM 0.004 0.004 0.004 0.004 0.004 Not Reported Not Reported
05/15/2019 06:52 AM 47.30 45.68 44.06 63.32 47.30 88.0 Not Reported 8.72 SE 8.50 SE 9.62 E No 0.000 No Precipitation 05/14/2019 10:26 PM 05/14/2019 10:31 PM 0.004 0.004 0.004 0.004 0.004 Not Reported Not Reported
05/15/2019 07:07 AM 46.94 45.68 44.42 63.32 46.94 90.0 Not Reported 9.17 E 10.51 E 10.07 SE No 0.000 No Precipitation 05/14/2019 10:26 PM 05/14/2019 10:31 PM 0.004 0.004 0.004 0.004 0.004 Not Reported Not Reported
05/15/2019 07:22 AM 46.94 45.68 44.42 63.32 46.76 91.0 Not Reported 8.28 E 6.26 E 11.18 E No 0.000 No Precipitation 05/14/2019 10:26 PM 05/14/2019 10:31 PM 0.004 0.004 0.004 0.004 0.004 Not Reported Not Reported
05/15/2019 07:37 AM 47.12 45.68 44.42 63.32 46.76 90.0 Not Reported 8.05 E 8.05 SE 10.07 E No 0.000 No Precipitation 05/14/2019 10:26 PM 05/14/2019 10:31 PM 0.000 0.004 0.004 0.004 0.004 Not Reported Not Reported
05/15/2019 07:52 AM 47.66 45.86 44.06 63.32 46.76 86.0 Not Reported 8.05 E 7.61 E 10.07 E No 0.000 No Precipitation 05/14/2019 10:26 PM 05/14/2019 10:31 PM 0.000 0.004 0.004 0.004 0.004 Not Reported Not Reported
05/15/2019 08:07 AM 47.30 45.86 44.24 63.32 46.76 89.0 Not Reported 8.50 SE 10.74 SE 11.41 E No 0.000 No Precipitation 05/15/2019 12:00 AM 05/15/2019 12:05 AM 0.004 0.008 0.008 0.008 0.008 Not Reported Not Reported
05/15/2019 08:22 AM 47.48 46.04 44.78 63.32 46.76 90.0 Not Reported 7.61 E 8.05 SE 12.53 SE No 0.000 No Precipitation 05/15/2019 12:09 AM 05/15/2019 12:14 AM 0.008 0.008 0.008 0.008 0.008 Not Reported Not Reported
05/15/2019 08:37 AM 47.66 46.22 44.78 63.32 46.76 89.0 Not Reported 6.93 SE 6.49 E 10.74 E No 0.000 No Precipitation 05/15/2019 12:09 AM 05/15/2019 12:14 AM 0.008 0.008 0.008 0.008 0.008 Not Reported Not Reported
05/15/2019 08:52 AM 47.66 46.22 44.78 63.32 46.76 89.0 Not Reported 7.38 E 6.04 SE 10.29 E Yes 0.043 Rain Slight 05/15/2019 12:48 AM   0.016 0.020 0.020 0.020 0.020 Not Reported Not Reported
05/15/2019 09:07 AM 47.48 46.04 44.60 63.32 46.76 89.0 Not Reported 8.95 E 10.07 SE 14.09 SE No 0.000 No Precipitation 05/15/2019 12:48 AM 05/15/2019 12:53 AM 0.008 0.020 0.020 0.020 0.020 Not Reported Not Reported
05/15/2019 09:22 AM 46.94 45.68 44.42 63.32 46.76 90.0 Not Reported 8.95 E 10.07 E 15.21 E Yes 0.043 Rain Slight 05/15/2019 01:14 AM   0.020 0.031 0.031 0.031 0.031 Not Reported Not Reported
05/15/2019 09:37 AM 46.58 45.50 44.60 63.32 46.58 92.0 Not Reported 12.30 SE 12.08 E 14.76 E Yes 0.085 Rain Moderate 05/15/2019 01:14 AM   0.043 0.055 0.059 0.059 0.059 Not Reported Not Reported
05/15/2019 09:52 AM 46.76 45.68 44.78 63.32 46.40 93.0 Not Reported 15.66 E 16.78 E 17.90 SE Yes 0.043 Rain Slight 05/15/2019 01:49 AM   0.043 0.063 0.067 0.067 0.067 Not Reported Not Reported
05/15/2019 10:07 AM 46.40 45.50 44.60 63.32 46.22 93.0 Not Reported 14.76 E 13.87 E 21.25 SE Yes 0.043 Rain Slight 05/15/2019 01:49 AM   0.067 0.083 0.083 0.083 0.083 Not Reported Not Reported
05/15/2019 10:22 AM 46.04 45.14 44.24 63.32 46.04 93.0 Not Reported 12.97 SE 13.65 E 19.46 SE Yes 0.043 Rain Slight 05/15/2019 02:22 AM   0.063 0.091 0.091 0.091 0.091 Not Reported Not Reported
05/15/2019 10:37 AM 45.86 44.96 44.24 63.32 45.86 93.0 Not Reported 11.86 SE 15.21 E 19.01 E Yes 0.085 Rain Moderate 05/15/2019 02:31 AM   0.043 0.102 0.102 0.102 0.102 Not Reported Not Reported
05/15/2019 10:52 AM 45.68 44.60 43.52 63.32 45.32 92.0 Not Reported 13.65 SE 12.30 SE 19.24 E Yes 0.085 Rain Moderate 05/15/2019 02:31 AM   0.059 0.122 0.126 0.126 0.126 Not Reported Not Reported
05/15/2019 11:07 AM 45.86 44.60 43.52 63.32 45.32 91.0 Not Reported 12.97 E 17.22 E 19.91 E Yes 0.043 Rain Slight 05/15/2019 03:03 AM   0.043 0.126 0.134 0.134 0.134 Not Reported Not Reported
05/15/2019 11:22 AM 45.32 44.24 42.98 63.32 45.32 91.0 Not Reported 12.97 E 12.53 E 21.70 SE Yes 0.043 Rain Slight 05/15/2019 03:10 AM   0.055 0.138 0.150 0.150 0.150 Not Reported Not Reported
05/15/2019 11:37 AM 45.14 43.88 42.80 63.32 44.96 91.0 Not Reported 17.45 SE 14.09 SE 23.71 SE No 0.000 No Precipitation 05/15/2019 03:10 AM 05/15/2019 03:35 AM 0.051 0.146 0.157 0.157 0.157 Not Reported Not Reported
05/15/2019 11:52 AM 45.32 44.06 42.98 63.32 44.96 91.0 Not Reported 17.22 E 17.67 E 23.49 E Yes 0.043 Rain Slight 05/15/2019 03:50 AM   0.039 0.146 0.165 0.165 0.165 Not Reported Not Reported
05/15/2019 12:07 PM 45.32 44.06 42.80 63.32 44.96 90.0 Not Reported 16.33 E 14.09 SE 23.04 SE Yes 0.043 Rain Slight 05/15/2019 03:58 AM   0.039 0.154 0.169 0.169 0.169 Not Reported Not Reported
05/15/2019 12:22 PM 45.14 43.88 42.44 63.32 44.96 89.0 Not Reported 20.36 SE 21.70 E 21.70 E No 0.000 No Precipitation 05/15/2019 04:15 AM 05/15/2019 04:20 AM 0.031 0.150 0.181 0.181 0.181 Not Reported Not Reported
05/15/2019 12:37 PM 45.50 44.24 42.80 63.32 44.96 90.0 Not Reported 19.01 SE 15.21 E 23.04 SE Yes 0.043 Rain Slight 05/15/2019 04:35 AM   0.031 0.130 0.185 0.185 0.185 Not Reported Not Reported
05/15/2019 12:52 PM 45.68 44.42 43.34 63.32 44.96 91.0 Not Reported 18.57 E 13.42 E 22.82 E Yes 0.085 Rain Moderate 05/15/2019 04:48 AM   0.035 0.134 0.197 0.201 0.201 Not Reported Not Reported
05/15/2019 01:07 PM 45.86 44.78 43.70 63.32 44.96 92.0 Not Reported 19.91 SE 21.70 E 23.71 E Yes 0.085 Rain Moderate 05/15/2019 04:48 AM   0.039 0.130 0.209 0.217 0.217 Not Reported Not Reported
05/15/2019 01:22 PM 46.04 44.96 44.06 63.32 44.96 92.0 Not Reported 17.45 SE 17.67 SE 24.16 SE Yes 0.043 Rain Slight 05/15/2019 04:48 AM   0.043 0.134 0.224 0.224 0.224 Not Reported Not Reported
05/15/2019 01:37 PM 46.40 45.50 44.42 63.32 44.96 92.0 Not Reported 15.66 SE 23.26 E 20.36 E Yes 0.085 Rain Moderate 05/15/2019 04:48 AM   0.059 0.142 0.244 0.244 0.244 Not Reported Not Reported
05/15/2019 01:52 PM 46.94 45.86 44.78 63.32 44.96 91.0 Not Reported 14.99 E 16.55 E 21.92 E Yes 0.085 Rain Moderate 05/15/2019 04:48 AM   0.075 0.150 0.272 0.276 0.276 Not Reported Not Reported
05/15/2019 02:07 PM 47.48 46.22 44.96 63.32 44.96 91.0 Not Reported 18.12 E 15.66 SE 22.37 SE Yes 0.043 Rain Slight 05/15/2019 06:06 AM   0.067 0.150 0.276 0.283 0.283 Not Reported Not Reported
05/15/2019 02:22 PM 47.12 46.04 44.78 63.32 44.96 91.0 Not Reported 15.66 SE 15.43 SE 23.94 E Yes 0.043 Rain Slight 05/15/2019 06:12 AM   0.067 0.146 0.283 0.295 0.295 Not Reported Not Reported
05/15/2019 02:37 PM 47.48 46.22 45.14 63.32 44.96 91.0 Not Reported 18.79 SE 16.33 SE 24.38 SE Yes 0.043 Rain Slight 05/15/2019 06:12 AM   0.063 0.154 0.299 0.311 0.311 Not Reported Not Reported
05/15/2019 02:52 PM 47.30 46.22 45.14 63.32 44.96 92.0 Not Reported 12.08 SE 13.20 SE 19.24 E Yes 0.043 Rain Slight 05/15/2019 06:40 AM   0.051 0.161 0.307 0.323 0.323 Not Reported Not Reported
05/15/2019 03:07 PM 47.48 46.58 45.50 63.32 44.96 92.0 Not Reported 12.53 SE 11.86 E 16.55 SE Yes 0.043 Rain Slight 05/15/2019 06:40 AM   0.059 0.165 0.323 0.343 0.343 Not Reported Not Reported
05/15/2019 03:22 PM 48.38 47.12 46.04 63.32 44.96 91.0 Not Reported 17.00 E 14.54 SE 20.58 SE Yes 0.043 Rain Slight 05/15/2019 07:18 AM   0.063 0.177 0.323 0.354 0.354 Not Reported Not Reported
05/15/2019 03:37 PM 48.38 47.12 45.86 63.32 44.96 90.0 Not Reported 18.79 SE 11.18 E 27.74 E Yes 0.043 Rain Slight 05/15/2019 07:34 AM   0.055 0.177 0.307 0.362 0.362 Not Reported Not Reported
05/15/2019 03:52 PM 48.02 46.58 45.14 63.32 44.96 89.0 Not Reported 21.25 E 21.03 SE 25.95 SE Yes 0.043 Rain Slight 05/15/2019 07:50 AM   0.039 0.165 0.303 0.370 0.370 Not Reported Not Reported
05/15/2019 04:07 PM 48.20 46.94 45.68 63.32 44.96 90.0 Not Reported 14.09 SE 19.91 SE 23.26 SE No 0.000 No Precipitation 05/15/2019 08:00 AM 05/15/2019 08:05 AM 0.031 0.157 0.287 0.374 0.374 Not Reported Not Reported
05/15/2019 04:22 PM 48.38 46.94 45.86 63.32 44.96 90.0 Not Reported 17.22 E 15.66 E 22.37 SE No 0.000 No Precipitation 05/15/2019 08:00 AM 05/15/2019 08:05 AM 0.016 0.146 0.280 0.374 0.374 Not Reported Not Reported
05/15/2019 04:37 PM 47.84 46.76 45.68 63.32 44.96 92.0 Not Reported 14.54 SE 14.76 SE 21.25 E Yes 0.043 Rain Slight 05/15/2019 08:35 AM   0.008 0.130 0.272 0.374 0.374 Not Reported Not Reported
05/15/2019 04:52 PM 47.48 46.40 45.50 63.32 44.96 92.0 Not Reported 12.75 SE 11.86 SE 19.46 SE Yes 0.085 Rain Moderate 05/15/2019 08:43 AM   0.020 0.110 0.264 0.390 0.390 Not Reported Not Reported
05/15/2019 05:07 PM 47.48 46.58 45.86 63.32 44.96 93.0 Not Reported 12.75 SE 12.30 E 16.33 E Yes 0.043 Rain Slight 05/15/2019 08:43 AM   0.039 0.130 0.280 0.413 0.413 Not Reported Not Reported
05/15/2019 05:22 PM 48.20 47.12 46.40 62.24 44.96 93.0 Not Reported 14.32 SE 13.42 SE 18.57 SE Yes 0.043 Rain Slight 05/15/2019 08:43 AM   0.067 0.146 0.291 0.441 0.441 Not Reported Not Reported
05/15/2019 05:37 PM 47.84 46.94 46.04 60.98 44.96 93.0 Not Reported 15.88 SE 9.84 E 20.80 E Yes 0.085 Rain Moderate 05/15/2019 09:25 AM   0.079 0.146 0.299 0.453 0.453 Not Reported Not Reported
05/15/2019 05:52 PM 47.48 46.58 45.86 60.98 44.96 93.0 Not Reported 13.65 SE 13.65 SE 19.01 SE Yes 0.085 Rain Moderate 05/15/2019 09:46 AM   0.079 0.142 0.303 0.469 0.469 Not Reported Not Reported
05/15/2019 06:07 PM 47.30 46.58 45.86 60.98 44.96 94.0 Not Reported 13.42 SE 14.09 E 18.12 SE Yes 0.043 Rain Slight 05/15/2019 10:05 AM   0.063 0.134 0.303 0.472 0.472 Not Reported Not Reported
05/15/2019 06:22 PM 47.30 46.40 45.68 60.98 44.96 94.0 Not Reported 14.09 SE 16.11 SE 18.79 SE Yes 0.085 Rain Moderate 05/15/2019 10:18 AM   0.051 0.134 0.311 0.492 0.492 Not Reported Not Reported
05/15/2019 06:37 PM 47.12 46.22 45.50 60.98 44.96 94.0 Not Reported 17.90 SE 12.30 SE 18.34 E Yes 0.043 Rain Slight 05/15/2019 10:18 AM   0.055 0.146 0.323 0.508 0.512 Not Reported Not Reported
05/15/2019 06:52 PM 47.30 46.58 45.86 59.90 44.96 94.0 Not Reported 12.75 SE 12.53 SE 20.13 E Yes 0.043 Rain Slight 05/15/2019 10:46 AM   0.055 0.154 0.323 0.520 0.524 Not Reported Not Reported
05/15/2019 07:07 PM 46.94 46.22 45.50 59.18 44.96 94.0 Not Reported 12.53 SE 12.53 E 19.46 E Yes 0.043 Rain Slight 05/15/2019 10:58 AM   0.063 0.165 0.323 0.535 0.539 Not Reported Not Reported
05/15/2019 07:22 PM 46.58 45.86 45.32 58.28 44.96 94.0 Not Reported 17.22 E 14.32 SE 21.47 E Yes 0.085 Rain Moderate 05/15/2019 10:58 AM   0.063 0.181 0.323 0.551 0.555 Not Reported Not Reported
05/15/2019 07:37 PM 46.22 45.50 44.78 57.74 44.96 95.0 Not Reported 16.11 E 8.72 E 19.69 E Yes 0.043 Rain Slight 05/15/2019 10:58 AM   0.067 0.201 0.331 0.575 0.579 Not Reported Not Reported
05/15/2019 07:52 PM 45.86 45.32 44.60 57.20 44.96 94.0 Not Reported 14.32 E 12.08 SE 25.50 SE Yes 0.043 Rain Slight 05/15/2019 10:58 AM   0.071 0.205 0.315 0.591 0.594 Not Reported Not Reported
05/15/2019 08:07 PM 45.86 44.96 44.24 56.84 44.96 94.0 Not Reported 18.57 E 18.34 E 20.13 E Yes 0.085 Rain Moderate 05/15/2019 10:58 AM   0.079 0.205 0.335 0.610 0.618 Not Reported Not Reported
05/15/2019 08:22 PM 45.68 44.78 44.06 56.66 44.96 93.0 Not Reported 16.33 SE 17.00 E 19.69 E Yes 0.085 Rain Moderate 05/15/2019 10:58 AM   0.083 0.197 0.343 0.626 0.634 Not Reported Not Reported
05/15/2019 08:37 PM 45.68 44.60 43.70 56.12 44.96 93.0 Not Reported 17.45 SE 17.67 SE 19.01 E Yes 0.085 Rain Moderate 05/15/2019 10:58 AM   0.079 0.201 0.343 0.646 0.654 Not Reported Not Reported
05/15/2019 08:52 PM 45.68 44.78 43.70 55.58 44.96 92.0 Not Reported 17.67 E 20.13 SE 20.13 SE Yes 0.128 Rain Moderate 05/15/2019 10:58 AM   0.083 0.205 0.350 0.654 0.673 Not Reported Not Reported
05/15/2019 09:07 PM 45.86 44.78 43.88 55.40 44.96 92.0 Not Reported 17.45 E 14.99 SE 21.03 SE Yes 0.085 Rain Moderate 05/15/2019 10:58 AM   0.083 0.224 0.354 0.681 0.701 Not Reported Not Reported
05/15/2019 09:22 PM 45.68 44.78 43.88 54.68 44.96 93.0 Not Reported 11.63 SE 12.53 SE 23.04 E Yes 0.085 Rain Moderate 05/15/2019 10:58 AM   0.091 0.236 0.370 0.693 0.728 Not Reported Not Reported
05/15/2019 09:37 PM 45.50 44.78 44.06 54.50 44.96 94.0 Not Reported 14.09 SE 13.42 SE 15.88 E Yes 0.128 Rain Moderate 05/15/2019 10:58 AM   0.102 0.252 0.394 0.705 0.764 Not Reported Not Reported
05/15/2019 09:52 PM 45.32 44.60 43.88 54.32 44.96 94.0 Not Reported 19.24 E 21.47 E 19.91 E Yes 0.128 Rain Moderate 05/15/2019 10:58 AM   0.110 0.268 0.421 0.724 0.787 Not Reported Not Reported
05/15/2019 10:07 PM 44.78 44.24 43.52 54.14 44.78 94.0 Not Reported 14.76 E 16.78 E 21.70 E Yes 0.043 Rain Slight 05/15/2019 10:58 AM   0.102 0.268 0.433 0.720 0.807 Not Reported Not Reported
05/15/2019 10:22 PM 44.78 44.24 43.52 53.96 44.60 95.0 Not Reported 9.40 E 9.40 E 17.00 E Yes 0.043 Rain Slight 05/15/2019 10:58 AM   0.102 0.280 0.461 0.740 0.831 Not Reported Not Reported
05/15/2019 10:37 PM 44.06 43.16 42.26 53.60 43.88 93.0 Not Reported 15.43 SE 12.53 E 14.76 E Yes 0.085 Rain Moderate 05/15/2019 10:58 AM   0.091 0.276 0.472 0.748 0.850 Not Reported Not Reported
05/15/2019 10:52 PM 44.06 43.34 42.62 53.06 43.88 94.0 Not Reported 11.86 E 12.75 E 17.45 SE Yes 0.128 Rain Moderate 05/15/2019 10:58 AM   0.098 0.295 0.500 0.764 0.886 Not Reported Not Reported
05/15/2019 11:07 PM 43.88 43.16 42.62 53.06 43.88 95.0 Not Reported 17.22 E 16.11 E 18.79 E Yes 0.184 Rain Moderate 05/15/2019 10:58 AM   0.118 0.307 0.512 0.787 0.925 Not Reported Not Reported
05/15/2019 11:22 PM 43.70 43.16 42.44 53.06 43.70 95.0 Not Reported 9.84 E 8.95 SE 17.90 E Yes 0.184 Rain Moderate 05/15/2019 10:58 AM   0.130 0.323 0.524 0.811 0.965 Not Reported Not Reported
05/15/2019 11:37 PM 43.70 43.16 42.44 53.06 43.52 95.0 Not Reported 11.18 SE 9.62 E 17.00 SE Yes 0.227 Rain Moderate 05/15/2019 10:58 AM   0.165 0.362 0.567 0.866 1.024 Not Reported Not Reported
05/15/2019 11:52 PM 43.34 42.62 42.08 53.06 43.34 95.0 Not Reported 17.22 SE 16.78 SE 18.57 SE Yes 0.085 Rain Moderate 05/15/2019 10:58 AM   0.165 0.382 0.591 0.890 1.059 Not Reported Not Reported